createdAt,value
2018-11-01T00:11:50.160Z,98734.96
2018-11-01T00:21:52.168Z,98725.48
2018-11-01T00:31:53.537Z,98732.78
2018-11-01T00:41:55.060Z,98737.19
2018-11-01T00:51:56.529Z,98747.84
2018-11-01T01:01:58.024Z,98755.41
2018-11-01T01:11:58.924Z,98750.13
2018-11-01T01:22:00.401Z,98740.56
2018-11-01T01:32:01.829Z,98726.09
2018-11-01T01:42:02.822Z,98716.80
2018-11-01T01:52:05.380Z,98734.66
2018-11-01T02:02:07.874Z,98731.26
2018-11-01T02:12:09.363Z,98711.23
2018-11-01T02:22:11.892Z,98671.14
2018-11-01T02:32:13.418Z,98678.47
2018-11-01T02:42:14.957Z,98676.53
2018-11-01T02:52:16.373Z,98667.03
2018-11-01T03:02:17.840Z,98664.47
2018-11-01T03:12:19.270Z,98660.58
2018-11-01T03:22:20.821Z,98645.17
2018-11-01T03:32:22.411Z,98642.55
2018-11-01T03:52:30.973Z,98627.47
2018-11-01T04:02:32.423Z,98632.88
2018-11-01T04:12:33.852Z,98639.64
2018-11-01T04:22:35.247Z,98633.12
2018-11-01T04:32:36.655Z,98615.03
2018-11-01T04:42:38.062Z,98593.52
2018-11-01T04:52:38.988Z,98596.35
2018-11-01T05:02:40.465Z,98607.80
2018-11-01T05:12:42.036Z,98621.43
2018-11-01T05:22:43.415Z,98607.20
2018-11-01T05:32:44.923Z,98596.75
2018-11-01T05:42:46.334Z,98585.73
2018-11-01T05:52:47.826Z,98586.58
2018-11-01T06:02:49.298Z,98603.11
2018-11-01T06:12:50.173Z,98591.30
2018-11-01T06:22:51.641Z,98620.10
2018-11-01T06:32:53.114Z,98629.98
2018-11-01T06:42:54.612Z,98613.80
2018-11-01T06:52:56.053Z,98639.91
2018-11-01T07:02:57.024Z,98638.70
2018-11-01T07:12:59.470Z,98654.60
2018-11-01T07:23:01.011Z,98621.14
2018-11-01T07:33:02.037Z,98607.05
2018-11-01T07:43:03.393Z,98589.53
2018-11-01T07:53:04.929Z,98553.86
2018-11-01T08:03:06.380Z,98545.42
2018-11-01T08:13:07.703Z,98561.69
2018-11-01T08:23:09.190Z,98543.52
2018-11-01T08:33:10.712Z,98531.06
2018-11-01T08:43:12.207Z,98532.42
2018-11-01T08:53:13.341Z,98549.47
2018-11-01T09:03:14.759Z,98558.86
2018-11-01T09:13:16.386Z,98543.66
2018-11-01T09:23:18.443Z,98563.48
2018-11-01T09:53:34.909Z,98591.76
2018-11-01T10:03:36.365Z,98587.75
